Time;durP1;ratioP1;P1;durP2;ratioP2;P2;SDS_P1;SDS_P2;PMS_P1;PMS_P2;Temp;Humidity;BMP_temperature;BMP_pressure;BME280_temperature;BME280_humidity;BME280_pressure;Samples;Min_cycle;Max_cycle;Signal;HPM_P1;HPM_P2
2021/11/02 00:01:07;;;;;;;6.28;5.45;;;8.30;83.20;;;;;;5008087;28;20038;-67
2021/11/02 00:03:34;;;;;;;6.20;5.07;;;8.30;83.30;;;;;;5010717;28;20033;-67
2021/11/02 00:06:00;;;;;;;5.82;5.22;;;8.30;83.30;;;;;;5005270;28;20041;-65
2021/11/02 00:08:26;;;;;;;4.47;4.07;;;8.30;83.30;;;;;;5014161;28;20037;-67
2021/11/02 00:10:51;;;;;;;6.75;4.30;;;8.40;83.40;;;;;;5009241;28;20409;-66
2021/11/02 00:13:19;;;;;;;5.25;4.13;;;8.40;83.40;;;;;;5010308;28;20029;-65
2021/11/02 00:15:52;;;;;;;3.63;3.28;;;8.40;83.30;;;;;;5040922;28;20125;-65
2021/11/02 00:18:18;;;;;;;3.85;3.47;;;8.40;83.40;;;;;;5029384;28;20053;-66
2021/11/02 00:20:44;;;;;;;3.08;2.88;;;8.40;83.40;;;;;;5009826;28;20042;-65
2021/11/02 00:23:09;;;;;;;3.00;2.80;;;8.50;83.40;;;;;;5015075;28;20598;-66
2021/11/02 00:25:35;;;;;;;3.20;2.90;;;8.50;83.40;;;;;;5005747;28;20084;-65
2021/11/02 00:28:03;;;;;;;4.05;3.17;;;8.50;83.50;;;;;;5006388;28;20040;-65
2021/11/02 00:30:29;;;;;;;3.90;3.30;;;8.50;83.60;;;;;;5009621;28;20058;-65
2021/11/02 00:32:55;;;;;;;3.97;2.83;;;8.50;83.60;;;;;;5013430;28;20040;-65
2021/11/02 00:35:23;;;;;;;3.35;2.75;;;8.50;83.60;;;;;;5008612;28;20523;-65
2021/11/02 00:37:49;;;;;;;3.35;3.05;;;8.50;83.60;;;;;;5012582;28;20064;-65
2021/11/02 00:40:17;;;;;;;3.20;2.92;;;8.50;83.70;;;;;;5009202;28;20164;-65
2021/11/02 00:42:51;;;;;;;4.22;2.90;;;8.60;83.80;;;;;;5009608;28;20049;-66
2021/11/02 00:45:27;;;;;;;3.28;2.97;;;8.50;83.80;;;;;;5011898;28;20113;-65
2021/11/02 00:47:53;;;;;;;3.10;2.80;;;8.60;84.00;;;;;;5011961;28;20069;-65
2021/11/02 00:50:19;;;;;;;3.80;3.20;;;8.60;84.10;;;;;;5007645;28;20156;-65
2021/11/02 00:52:45;;;;;;;3.70;3.00;;;8.50;84.20;;;;;;5005404;28;20068;-65
2021/11/02 00:55:11;;;;;;;4.30;3.55;;;8.60;84.50;;;;;;5010322;28;20037;-65
2021/11/02 00:57:36;;;;;;;4.25;3.30;;;8.60;84.60;;;;;;5010643;28;20065;-66
2021/11/02 01:00:09;;;;;;;4.78;3.25;;;8.60;84.60;;;;;;5011553;28;20552;-65
2021/11/02 01:02:35;;;;;;;3.35;3.05;;;8.60;84.90;;;;;;5009736;28;20034;-65
2021/11/02 01:05:01;;;;;;;4.20;3.80;;;8.60;84.90;;;;;;5007775;28;20103;-65
2021/11/02 01:07:27;;;;;;;3.97;3.53;;;8.70;85.00;;;;;;5000621;28;20038;-66
2021/11/02 01:09:52;;;;;;;4.60;4.20;;;8.70;85.00;;;;;;4992462;28;20038;-66
2021/11/02 01:12:18;;;;;;;4.25;3.88;;;8.70;85.00;;;;;;4997949;28;20042;-66
2021/11/02 01:14:44;;;;;;;4.30;4.00;;;8.80;85.00;;;;;;4989895;28;20195;-64
2021/11/02 01:17:10;;;;;;;4.38;3.97;;;8.80;85.00;;;;;;4990003;28;20038;-65
2021/11/02 01:19:36;;;;;;;5.15;4.40;;;8.80;85.00;;;;;;4991061;28;20464;-65
2021/11/02 01:22:02;;;;;;;5.03;4.38;;;8.80;85.00;;;;;;4989473;28;20039;-65
2021/11/02 01:24:27;;;;;;;4.80;4.40;;;8.80;85.00;;;;;;4993158;28;20034;-65
2021/11/02 01:26:53;;;;;;;5.30;4.22;;;8.90;85.10;;;;;;4993782;28;20378;-65
2021/11/02 01:29:19;;;;;;;5.10;4.60;;;8.90;85.00;;;;;;4990691;28;20045;-65
2021/11/02 01:31:46;;;;;;;4.90;4.40;;;8.90;85.00;;;;;;4990248;28;20130;-65
2021/11/02 01:34:11;;;;;;;5.22;4.78;;;8.90;85.00;;;;;;4989607;28;20030;-65
2021/11/02 01:36:38;;;;;;;7.10;4.80;;;8.90;84.90;;;;;;4986417;28;20038;-64
2021/11/02 01:39:06;;;;;;;5.97;4.47;;;8.90;84.80;;;;;;4989560;28;20041;-66
2021/11/02 01:41:32;;;;;;;7.72;5.60;;;8.90;84.80;;;;;;4988879;28;20027;-65
2021/11/02 01:43:59;;;;;;;5.80;5.20;;;8.90;84.80;;;;;;4987854;28;20568;-66
2021/11/02 01:46:27;;;;;;;5.70;4.97;;;8.90;84.80;;;;;;4988104;28;20034;-65
2021/11/02 01:48:55;;;;;;;5.85;5.35;;;8.90;84.80;;;;;;4989533;28;20030;-65
2021/11/02 01:51:22;;;;;;;5.63;5.05;;;8.90;84.90;;;;;;4990017;28;20519;-66
2021/11/02 01:53:48;;;;;;;5.80;5.30;;;8.90;85.00;;;;;;4994048;28;20042;-65
2021/11/02 01:56:14;;;;;;;5.28;4.80;;;8.90;85.00;;;;;;4991154;28;20118;-66
2021/11/02 01:58:44;;;;;;;5.72;5.05;;;8.90;85.20;;;;;;4993819;28;20504;-66
2021/11/02 02:01:13;;;;;;;5.53;5.03;;;8.90;85.20;;;;;;4990942;28;20029;-65
2021/11/02 02:03:53;;;;;;;7.15;5.32;;;8.90;85.20;;;;;;4992916;28;20372;-65
2021/11/02 02:06:57;;;;;;;5.82;5.22;;;8.90;85.30;;;;;;4990944;28;20045;-65
2021/11/02 02:09:46;;;;;;;6.15;5.45;;;8.90;85.30;;;;;;4984314;28;20039;-65
2021/11/02 02:12:27;;;;;;;6.15;5.03;;;8.90;85.10;;;;;;4986944;28;20039;-65
2021/11/02 02:15:07;;;;;;;6.15;5.05;;;8.90;85.20;;;;;;4988999;28;20091;-66
2021/11/02 02:17:39;;;;;;;5.45;4.95;;;8.90;85.30;;;;;;4994367;28;20034;-65
2021/11/02 02:20:56;;;;;;;5.57;5.10;;;8.90;85.20;;;;;;4986516;28;20039;-66
2021/11/02 02:24:05;;;;;;;6.70;5.45;;;9.00;85.50;;;;;;4967142;28;20029;-65
2021/11/02 02:26:36;;;;;;;5.93;5.30;;;9.00;85.30;;;;;;4987614;28;20044;-66
2021/11/02 02:29:04;;;;;;;5.03;4.53;;;9.00;85.10;;;;;;4987104;28;20464;-66
2021/11/02 02:31:35;;;;;;;7.68;4.88;;;9.00;85.20;;;;;;4985661;28;20030;-65
2021/11/02 02:34:03;;;;;;;5.88;5.03;;;9.10;85.20;;;;;;4986258;28;20030;-65
2021/11/02 02:36:32;;;;;;;6.43;5.05;;;9.10;85.10;;;;;;4989115;28;20038;-65
2021/11/02 02:39:00;;;;;;;6.03;5.43;;;9.10;85.00;;;;;;4996467;28;20030;-65
2021/11/02 02:41:26;;;;;;;6.32;5.63;;;9.10;85.00;;;;;;4997419;28;20038;-65
2021/11/02 02:43:53;;;;;;;6.05;5.35;;;9.10;84.90;;;;;;4988981;28;20057;-65
2021/11/02 02:46:20;;;;;;;6.70;6.00;;;9.20;85.00;;;;;;4993060;28;20047;-65
2021/11/02 02:48:48;;;;;;;6.60;5.72;;;9.20;85.10;;;;;;4993558;28;20042;-66
2021/11/02 02:51:16;;;;;;;6.47;5.80;;;9.20;85.20;;;;;;4994705;28;20543;-65
2021/11/02 02:53:44;;;;;;;9.15;5.80;;;9.20;85.30;;;;;;4990838;28;20046;-65
2021/11/02 02:56:11;;;;;;;6.40;5.80;;;9.20;85.30;;;;;;4990556;28;20034;-65
2021/11/02 02:58:41;;;;;;;8.05;6.00;;;9.20;85.30;;;;;;4996319;28;20413;-65
2021/11/02 03:01:12;;;;;;;6.35;5.40;;;9.20;85.50;;;;;;4992464;28;20398;-65
2021/11/02 03:03:49;;;;;;;5.72;5.22;;;9.20;85.70;;;;;;4995073;28;20042;-64
2021/11/02 03:06:17;;;;;;;6.18;5.57;;;9.20;86.50;;;;;;4996073;28;20034;-65
2021/11/02 03:08:43;;;;;;;6.03;5.45;;;9.20;85.60;;;;;;4988235;28;20660;-65
2021/11/02 03:11:11;;;;;;;6.57;5.68;;;9.30;85.60;;;;;;4985016;28;20049;-65
2021/11/02 03:13:43;;;;;;;6.38;5.57;;;9.30;85.70;;;;;;4991193;28;20409;-65
2021/11/02 03:16:13;;;;;;;6.07;5.47;;;9.30;85.40;;;;;;4992368;28;20038;-64
2021/11/02 03:49:02;;;;;;;7.07;5.25;;;9.30;85.30;;;;;;4994824;28;20076;-65
2021/11/02 04:27:40;;;;;;;5.03;4.53;;;9.60;84.50;;;;;;4990729;28;20046;-66
2021/11/02 05:10:39;;;;;;;6.80;4.45;;;9.30;84.50;;;;;;5007855;28;20457;-65
2021/11/02 05:49:53;;;;;;;4.68;3.35;;;8.70;84.40;;;;;;5016591;28;20037;-65
2021/11/02 05:58:32;;;;;;;4.88;3.83;;;8.60;84.50;;;;;;5016115;28;20072;-66
2021/11/02 06:00:38;;;;;;;4.72;3.60;;;8.50;84.50;;;;;;5012362;28;20364;-65
2021/11/02 06:03:20;;;;;;;4.05;3.70;;;8.50;84.50;;;;;;5016309;28;20037;-66
2021/11/02 06:06:05;;;;;;;3.85;3.55;;;8.50;84.50;;;;;;5015543;28;20333;-65
2021/11/02 06:28:06;;;;;;;4.75;4.15;;;8.40;83.80;;;;;;5015143;28;20040;-65
2021/11/02 06:30:39;;;;;;;4.40;4.00;;;8.40;83.40;;;;;;5015580;28;20115;-66
2021/11/02 06:33:16;;;;;;;4.05;3.75;;;8.40;83.30;;;;;;5016864;28;20055;-66
2021/11/02 06:36:14;;;;;;;4.25;3.85;;;8.30;83.20;;;;;;5014692;28;20473;-65
2021/11/02 06:55:07;;;;;;;3.85;3.55;;;8.30;83.40;;;;;;5013505;28;20049;-65
2021/11/02 07:20:05;;;;;;;7.30;4.13;;;8.30;84.60;;;;;;4996483;28;20485;-66
2021/11/02 08:46:55;;;;;;;1.47;1.27;;;10.10;84.60;;;;;;5009677;28;20065;-65
2021/11/02 08:49:21;;;;;;;1.92;1.38;;;10.20;84.40;;;;;;5017527;28;20068;-65
2021/11/02 08:51:47;;;;;;;1.25;1.00;;;10.20;84.30;;;;;;5012760;28;20033;-65
2021/11/02 08:54:16;;;;;;;1.90;1.30;;;10.20;84.30;;;;;;5017788;28;20504;-65
2021/11/02 08:56:41;;;;;;;2.10;1.20;;;10.20;84.30;;;;;;5006132;28;20519;-65
2021/11/02 08:59:07;;;;;;;2.03;1.33;;;10.20;84.40;;;;;;4997671;28;20049;-66
2021/11/02 09:01:36;;;;;;;1.90;1.23;;;10.20;84.30;;;;;;5011461;28;20112;-66
2021/11/02 09:04:07;;;;;;;2.22;1.60;;;10.30;84.40;;;;;;5014350;28;20034;-66
2021/11/02 09:06:33;;;;;;;2.17;1.23;;;10.30;84.40;;;;;;4997275;28;20042;-66
2021/11/02 09:09:02;;;;;;;2.30;1.30;;;10.30;84.50;;;;;;5009657;28;20037;-65
2021/11/02 09:11:28;;;;;;;2.15;1.20;;;10.40;84.50;;;;;;5009104;28;20038;-65
2021/11/02 09:13:56;;;;;;;1.10;0.90;;;10.40;84.20;;;;;;5025878;28;20033;-66
2021/11/02 09:16:26;;;;;;;2.20;1.17;;;10.40;83.90;;;;;;4996599;28;20035;-66
2021/11/02 09:18:54;;;;;;;3.00;1.20;;;10.50;83.70;;;;;;5015863;28;20025;-66
2021/11/02 09:21:21;;;;;;;2.03;1.55;;;10.50;83.60;;;;;;5011129;28;20256;-66
2021/11/02 09:23:53;;;;;;;1.33;1.20;;;10.50;83.50;;;;;;5009430;28;20037;-66
2021/11/02 09:26:24;;;;;;;1.65;0.85;;;10.50;83.40;;;;;;4997203;28;20042;-66
2021/11/02 09:28:50;;;;;;;1.98;0.95;;;10.50;83.30;;;;;;4996057;28;20050;-66
2021/11/02 09:31:21;;;;;;;1.60;1.00;;;10.50;83.40;;;;;;4999112;28;20255;-66
2021/11/02 09:33:48;;;;;;;1.73;0.80;;;10.50;83.50;;;;;;5012300;28;20032;-66
2021/11/02 09:36:19;;;;;;;2.17;0.75;;;10.50;83.40;;;;;;5010973;28;20053;-66
2021/11/02 09:39:00;;;;;;;1.00;0.70;;;10.40;83.10;;;;;;5006661;28;20539;-65
2021/11/02 09:41:56;;;;;;;2.92;1.20;;;10.40;82.90;;;;;;4999376;28;20076;-65
2021/11/02 09:44:32;;;;;;;2.35;0.85;;;10.40;83.00;;;;;;5008293;28;20044;-66
2021/11/02 09:47:23;;;;;;;1.52;0.88;;;10.40;82.90;;;;;;5011023;28;20496;-66
2021/11/02 09:50:14;;;;;;;0.80;0.80;;;10.40;82.90;;;;;;5014255;28;20504;-66
2021/11/02 09:52:58;;;;;;;2.33;1.17;;;10.30;83.10;;;;;;5013444;28;20137;-66
2021/11/02 09:55:27;;;;;;;15.65;9.98;;;10.30;83.40;;;;;;5012544;28;20029;-65
2021/11/02 09:57:56;;;;;;;13.32;11.93;;;10.20;83.60;;;;;;5015363;28;20544;-66
2021/11/02 10:00:45;;;;;;;7.72;7.00;;;10.20;83.70;;;;;;5011732;28;20083;-66
2021/11/02 10:03:37;;;;;;;1.65;1.10;;;10.20;84.00;;;;;;5013025;28;20532;-65
2021/11/02 10:06:16;;;;;;;1.25;0.90;;;10.30;83.80;;;;;;5016327;28;20502;-66
2021/11/02 10:08:46;;;;;;;0.70;0.70;;;10.30;83.80;;;;;;5011942;28;20445;-65
2021/11/02 10:11:20;;;;;;;0.98;0.77;;;10.30;83.80;;;;;;5006213;28;20517;-65
2021/11/02 10:13:57;;;;;;;0.63;0.50;;;10.40;83.60;;;;;;5008553;28;20829;-66
2021/11/02 10:16:49;;;;;;;0.60;0.40;;;10.40;83.50;;;;;;5010307;28;20115;-65
2021/11/02 10:19:50;;;;;;;0.50;0.32;;;10.40;83.00;;;;;;5012992;28;20390;-66
2021/11/02 10:22:42;;;;;;;0.45;0.43;;;10.40;82.70;;;;;;5014348;28;20033;-65
2021/11/02 10:25:10;;;;;;;0.52;0.40;;;10.40;82.90;;;;;;5015047;28;20030;-66
2021/11/02 10:27:47;;;;;;;1.17;0.43;;;10.40;82.90;;;;;;4998859;28;20041;-66
2021/11/02 10:30:34;;;;;;;1.35;0.40;;;10.40;82.90;;;;;;5011076;28;20042;-66
2021/11/02 10:33:16;;;;;;;1.70;0.50;;;10.30;83.00;;;;;;4996809;28;20041;-66
2021/11/02 10:36:03;;;;;;;0.25;0.25;;;10.30;83.50;;;;;;5012504;28;20037;-66
2021/11/02 10:38:44;;;;;;;0.60;0.20;;;10.30;83.10;;;;;;5016521;28;20041;-66
2021/11/02 10:41:14;;;;;;;1.58;0.40;;;10.30;83.10;;;;;;5008612;28;20591;-66
2021/11/02 10:43:53;;;;;;;0.35;0.30;;;10.30;83.30;;;;;;5011723;28;20128;-65
2021/11/02 10:46:28;;;;;;;0.30;0.30;;;10.30;83.20;;;;;;5011827;28;20346;-66
2021/11/02 10:49:17;;;;;;;1.13;0.50;;;10.30;83.10;;;;;;5015941;28;20038;-66
2021/11/02 10:51:55;;;;;;;1.70;0.57;;;10.40;83.10;;;;;;5013963;28;20072;-65
2021/11/02 10:54:35;;;;;;;0.40;0.40;;;10.40;82.90;;;;;;5014761;28;20080;-66
2021/11/02 10:57:22;;;;;;;0.95;0.40;;;10.30;82.90;;;;;;5015343;28;20434;-66
2021/11/02 10:59:49;;;;;;;0.70;0.60;;;10.30;82.80;;;;;;5011393;28;20037;-66
2021/11/02 11:02:27;;;;;;;1.10;0.40;;;10.30;82.90;;;;;;5030024;28;20064;-65
2021/11/02 11:04:59;;;;;;;3.92;0.40;;;10.30;82.90;;;;;;5015275;28;20109;-66
2021/11/02 11:07:35;;;;;;;2.47;0.50;;;10.20;83.00;;;;;;5018407;28;20038;-66
2021/11/02 11:10:03;;;;;;;0.52;0.52;;;10.20;83.30;;;;;;5017997;28;20037;-65
2021/11/02 11:12:33;;;;;;;1.90;1.70;;;10.20;83.50;;;;;;5011268;28;20124;-66
2021/11/02 11:15:05;;;;;;;0.50;0.50;;;10.20;83.60;;;;;;5016833;28;20493;-65
2021/11/02 11:17:32;;;;;;;1.73;0.40;;;10.20;83.60;;;;;;5015739;28;20030;-66
2021/11/02 11:20:13;;;;;;;0.55;0.43;;;10.30;83.60;;;;;;5014955;28;20441;-65
2021/11/02 11:22:42;;;;;;;0.60;0.50;;;10.30;83.60;;;;;;5013627;28;20044;-66
2021/11/02 11:25:10;;;;;;;2.10;1.90;;;10.40;83.60;;;;;;5015304;28;20420;-65
2021/11/02 11:27:48;;;;;;;4.38;2.83;;;10.40;83.60;;;;;;5018610;28;20037;-66
2021/11/02 11:30:16;;;;;;;1.30;1.08;;;10.40;83.60;;;;;;5013518;28;20104;-66
2021/11/02 11:32:42;;;;;;;2.53;2.30;;;10.40;83.60;;;;;;5010593;28;20541;-66
2021/11/02 11:35:09;;;;;;;1.65;1.55;;;10.50;83.50;;;;;;5014512;28;20048;-66
2021/11/02 11:37:40;;;;;;;0.80;0.80;;;10.50;83.60;;;;;;5018083;28;20033;-66
2021/11/02 11:40:09;;;;;;;3.33;2.83;;;10.50;83.40;;;;;;5013532;28;20037;-66
2021/11/02 11:42:36;;;;;;;1.67;1.20;;;10.60;83.40;;;;;;5015563;28;20472;-66
2021/11/02 11:45:13;;;;;;;7.50;6.70;;;10.60;83.30;;;;;;5014601;28;20048;-66
2021/11/02 11:47:39;;;;;;;4.82;4.03;;;10.70;83.30;;;;;;5009378;28;20524;-67
2021/11/02 11:50:18;;;;;;;4.30;3.13;;;10.70;83.60;;;;;;5016460;28;20144;-66
2021/11/02 11:52:45;;;;;;;7.20;6.22;;;10.80;83.50;;;;;;5016586;28;20042;-66
2021/11/02 11:55:17;;;;;;;1.60;1.45;;;10.80;83.80;;;;;;4999015;28;20080;-66
2021/11/02 11:57:44;;;;;;;0.43;0.32;;;10.90;83.60;;;;;;4999430;28;20120;-66
2021/11/02 12:00:11;;;;;;;0.88;0.82;;;11.00;83.40;;;;;;4999256;28;21652;-67
2021/11/02 12:02:47;;;;;;;0.70;0.40;;;11.10;83.10;;;;;;4998852;28;20399;-66
2021/11/02 12:05:17;;;;;;;0.60;0.47;;;11.10;82.50;;;;;;4999157;28;20129;-66
2021/11/02 12:08:12;;;;;;;0.55;0.43;;;11.20;82.20;;;;;;4998626;28;20057;-66
2021/11/02 12:10:40;;;;;;;0.40;0.30;;;11.20;81.30;;;;;;4995315;28;20027;-65
2021/11/02 12:13:08;;;;;;;1.17;0.47;;;11.30;81.90;;;;;;5000373;28;20034;-66
2021/11/02 12:15:58;;;;;;;0.77;0.77;;;11.30;81.60;;;;;;4998355;28;20037;-66
2021/11/02 12:18:28;;;;;;;1.60;1.50;;;11.30;81.30;;;;;;4998508;28;20046;-67
2021/11/02 12:20:55;;;;;;;0.60;0.60;;;11.40;81.30;;;;;;4999534;28;20029;-66
2021/11/02 12:23:35;;;;;;;0.85;0.50;;;11.40;81.30;;;;;;4998704;28;20477;-67
2021/11/02 12:26:01;;;;;;;0.80;0.50;;;11.40;80.80;;;;;;4998852;28;20041;-66
2021/11/02 12:28:34;;;;;;;0.50;0.32;;;11.50;80.90;;;;;;4998593;28;20042;-66
2021/11/02 12:31:02;;;;;;;2.72;0.40;;;11.50;79.50;;;;;;4998465;28;20027;-66
2021/11/02 12:33:29;;;;;;;0.50;0.40;;;11.50;78.90;;;;;;4998130;28;20045;-65
2021/11/02 12:35:56;;;;;;;0.30;0.30;;;11.50;78.20;;;;;;4998334;28;20038;-66
2021/11/02 12:38:49;;;;;;;0.40;0.40;;;11.50;78.40;;;;;;4999166;28;20113;-66
2021/11/02 12:41:25;;;;;;;1.00;0.50;;;11.50;77.60;;;;;;4996691;28;20327;-66
2021/11/02 12:44:09;;;;;;;0.40;0.30;;;11.50;77.50;;;;;;5009736;28;20035;-66
2021/11/02 12:46:41;;;;;;;2.67;0.50;;;11.40;77.70;;;;;;5017244;28;20421;-66
2021/11/02 12:49:09;;;;;;;0.75;0.40;;;11.50;78.60;;;;;;5018613;28;20021;-67
2021/11/02 12:51:45;;;;;;;0.57;0.30;;;11.50;77.90;;;;;;5019114;28;20528;-67
2021/11/02 12:54:19;;;;;;;3.95;0.45;;;11.50;78.10;;;;;;5012242;28;20308;-66
2021/11/02 12:56:52;;;;;;;0.30;0.20;;;11.50;77.90;;;;;;5007247;28;20331;-66
2021/11/02 12:59:20;;;;;;;1.77;0.30;;;11.50;77.30;;;;;;5006445;28;20030;-66
2021/11/02 13:01:48;;;;;;;2.15;0.40;;;11.50;77.70;;;;;;4999083;28;20026;-66
2021/11/02 13:04:16;;;;;;;0.60;0.40;;;11.60;77.70;;;;;;5005963;28;20057;-67
2021/11/02 13:06:46;;;;;;;2.75;0.70;;;11.60;78.40;;;;;;5003924;28;20045;-66
2021/11/02 13:09:16;;;;;;;2.75;0.50;;;11.70;77.50;;;;;;4994246;28;20034;-65
2021/11/02 13:11:43;;;;;;;1.05;0.30;;;11.70;77.50;;;;;;5008005;28;20076;-67
2021/11/02 13:14:12;;;;;;;0.82;0.30;;;11.70;77.70;;;;;;5010205;28;20734;-66
2021/11/02 13:16:58;;;;;;;2.10;0.50;;;11.80;77.00;;;;;;5011484;28;20121;-66
2021/11/02 13:19:31;;;;;;;2.10;0.30;;;11.90;76.60;;;;;;5008679;28;20056;-67
2021/11/02 13:22:06;;;;;;;3.00;0.40;;;11.90;76.10;;;;;;5011454;28;20089;-66
2021/11/02 13:24:32;;;;;;;3.88;0.60;;;11.90;75.40;;;;;;5012040;28;20038;-67
2021/11/02 13:26:57;;;;;;;1.77;0.50;;;11.90;76.00;;;;;;5013136;28;20044;-67
2021/11/02 13:29:26;;;;;;;2.10;0.38;;;11.90;76.00;;;;;;5015674;28;20149;-65
2021/11/02 13:31:53;;;;;;;2.30;0.43;;;11.90;76.10;;;;;;5008670;28;20050;-67
2021/11/02 13:34:39;;;;;;;1.38;0.35;;;11.90;76.30;;;;;;5009471;28;20100;-67
2021/11/02 13:37:10;;;;;;;3.25;0.40;;;11.80;75.40;;;;;;5011995;28;20038;-67
2021/11/02 13:39:59;;;;;;;1.48;0.30;;;11.90;75.60;;;;;;5012625;28;20142;-67
2021/11/02 13:42:44;;;;;;;0.98;0.20;;;11.90;74.80;;;;;;5012290;28;20030;-67
2021/11/02 13:45:11;;;;;;;;;;;11.90;75.10;;;;;;5009215;28;20447;-66
2021/11/02 13:47:38;;;;;;;3.10;0.50;;;11.90;75.80;;;;;;5010197;28;20701;-67
2021/11/02 13:50:05;;;;;;;0.52;0.30;;;11.90;76.30;;;;;;5010896;28;20054;-67
2021/11/02 13:52:30;;;;;;;0.98;0.20;;;12.00;76.10;;;;;;5011894;28;20030;-67
2021/11/02 13:54:56;;;;;;;3.00;0.43;;;12.00;75.40;;;;;;5016366;28;20030;-66
2021/11/02 13:57:22;;;;;;;1.17;0.25;;;12.00;75.60;;;;;;5016489;28;20044;-66
2021/11/02 13:59:47;;;;;;;3.15;0.40;;;12.00;75.20;;;;;;5016516;28;20033;-67
2021/11/02 14:02:13;;;;;;;2.60;0.40;;;12.00;75.30;;;;;;5015957;28;20112;-67
2021/11/02 14:04:41;;;;;;;0.98;0.40;;;12.10;74.70;;;;;;5013632;28;20041;-66
2021/11/02 14:07:13;;;;;;;0.63;0.20;;;12.10;74.70;;;;;;5011163;28;20038;-66
2021/11/02 14:09:58;;;;;;;3.30;0.32;;;12.10;74.60;;;;;;5011630;28;20034;-66
2021/11/02 14:12:27;;;;;;;1.88;0.30;;;12.10;73.70;;;;;;5006109;28;20087;-67
2021/11/02 14:15:18;;;;;;;0.60;0.30;;;12.10;74.20;;;;;;5013216;28;20037;-66
2021/11/02 14:17:47;;;;;;;0.80;0.20;;;12.10;72.90;;;;;;5016516;28;20041;-67
2021/11/02 14:20:32;;;;;;;5.22;0.60;;;12.10;73.90;;;;;;5012373;28;20036;-67
2021/11/02 14:22:59;;;;;;;2.60;0.43;;;12.10;72.90;;;;;;5010815;28;20038;-67
2021/11/02 14:25:35;;;;;;;2.72;0.32;;;12.10;73.90;;;;;;5010917;28;20454;-66
2021/11/02 14:28:02;;;;;;;1.98;0.45;;;12.10;72.30;;;;;;5016773;28;20048;-67
2021/11/02 14:30:40;;;;;;;1.98;0.50;;;12.10;72.00;;;;;;5012083;28;20033;-66
2021/11/02 14:33:06;;;;;;;1.60;0.30;;;12.10;72.10;;;;;;5016344;28;20104;-67
2021/11/02 14:35:44;;;;;;;0.22;0.20;;;12.20;73.10;;;;;;5014939;28;20038;-67
2021/11/02 14:38:46;;;;;;;0.43;0.38;;;12.10;72.20;;;;;;5009501;28;20081;-67
2021/11/02 14:41:32;;;;;;;1.88;0.30;;;12.10;71.80;;;;;;5012883;28;20566;-67
2021/11/02 14:44:23;;;;;;;0.50;0.30;;;12.10;72.40;;;;;;5014620;28;20034;-67
2021/11/02 14:46:50;;;;;;;1.08;0.30;;;12.10;71.70;;;;;;5013251;28;20041;-67
2021/11/02 14:49:28;;;;;;;1.92;0.30;;;12.00;72.60;;;;;;5019469;28;20041;-65
2021/11/02 14:52:10;;;;;;;2.15;0.40;;;12.00;72.30;;;;;;5012749;28;20124;-67
2021/11/02 14:54:38;;;;;;;2.50;0.40;;;12.00;72.30;;;;;;5018692;28;20041;-66
2021/11/02 14:57:19;;;;;;;0.25;0.20;;;11.90;73.20;;;;;;5017181;28;20111;-66
2021/11/02 14:59:48;;;;;;;1.50;0.10;;;11.90;73.50;;;;;;5013972;28;20045;-65
2021/11/02 15:02:16;;;;;;;0.30;0.20;;;11.80;73.90;;;;;;5013766;28;20026;-66
2021/11/02 15:04:43;;;;;;;0.40;0.20;;;11.70;74.20;;;;;;5017118;28;20065;-66
2021/11/02 15:07:09;;;;;;;0.90;0.40;;;11.70;74.60;;;;;;5013379;28;20129;-66
2021/11/02 15:09:37;;;;;;;0.30;0.30;;;11.50;74.70;;;;;;5017284;28;20128;-66
2021/11/02 15:12:05;;;;;;;1.65;0.32;;;11.50;75.00;;;;;;5016464;28;20045;-66
2021/11/02 15:14:33;;;;;;;1.77;0.35;;;11.40;75.30;;;;;;5019828;28;20032;-66
2021/11/02 15:17:05;;;;;;;0.77;0.30;;;11.30;75.50;;;;;;5011357;28;20677;-66
2021/11/02 15:19:35;;;;;;;1.88;0.40;;;11.20;75.80;;;;;;5015642;28;20136;-66
2021/11/02 15:22:02;;;;;;;0.30;0.28;;;11.20;76.00;;;;;;5014125;28;20036;-66
2021/11/02 15:24:32;;;;;;;0.30;0.30;;;11.10;75.90;;;;;;5014678;28;20144;-66
2021/11/02 15:27:01;;;;;;;0.47;0.35;;;11.10;75.70;;;;;;5016645;28;20042;-66
2021/11/02 15:29:30;;;;;;;0.70;0.25;;;11.10;75.90;;;;;;5013865;28;20072;-66
2021/11/02 15:32:02;;;;;;;0.50;0.10;;;11.00;75.90;;;;;;5013597;28;20226;-66
2021/11/02 15:34:42;;;;;;;0.60;0.20;;;11.00;75.80;;;;;;5016786;28;20467;-64
2021/11/02 15:37:18;;;;;;;0.32;0.20;;;11.00;75.50;;;;;;5015203;28;20034;-66
2021/11/02 15:39:46;;;;;;;0.30;0.28;;;10.90;75.60;;;;;;5012284;28;20113;-65
2021/11/02 15:42:32;;;;;;;0.52;0.38;;;10.90;75.60;;;;;;5016098;28;20038;-66
2021/11/02 15:45:05;;;;;;;0.80;0.40;;;10.90;75.20;;;;;;5015073;28;20045;-66
2021/11/02 15:47:33;;;;;;;0.77;0.50;;;10.80;75.40;;;;;;5014711;28;20060;-66
2021/11/02 15:50:06;;;;;;;1.35;0.40;;;10.80;75.40;;;;;;5013391;28;20045;-66
2021/11/02 15:52:33;;;;;;;0.60;0.43;;;10.80;75.40;;;;;;5006963;28;20418;-65
2021/11/02 15:55:02;;;;;;;0.73;0.40;;;10.80;75.50;;;;;;5010135;28;20153;-64
2021/11/02 15:57:28;;;;;;;0.75;0.50;;;10.70;75.50;;;;;;5022517;28;20044;-65
2021/11/02 16:00:08;;;;;;;1.33;0.63;;;10.70;75.60;;;;;;5008590;28;20592;-66
2021/11/02 16:02:38;;;;;;;0.70;0.50;;;10.60;75.60;;;;;;5014604;28;20037;-66
2021/11/02 16:05:12;;;;;;;0.73;0.40;;;10.60;75.90;;;;;;5016837;28;20433;-66
2021/11/02 16:07:38;;;;;;;0.43;0.30;;;10.60;76.00;;;;;;5016372;28;20459;-66
2021/11/02 16:10:08;;;;;;;0.55;0.50;;;10.50;76.10;;;;;;5019253;28;20036;-66
2021/11/02 16:12:40;;;;;;;1.50;1.10;;;10.50;76.30;;;;;;5015214;28;20042;-66
2021/11/02 16:15:26;;;;;;;1.80;1.10;;;10.50;76.50;;;;;;5016877;28;20092;-66
2021/11/02 16:18:05;;;;;;;2.58;1.38;;;10.50;76.80;;;;;;5017877;28;20070;-66
2021/11/02 16:20:37;;;;;;;2.25;1.42;;;10.40;76.90;;;;;;5017904;28;20543;-66
2021/11/02 16:23:09;;;;;;;3.13;2.00;;;10.40;77.00;;;;;;5015029;28;20078;-66
2021/11/02 16:25:38;;;;;;;3.80;3.40;;;10.40;77.00;;;;;;5012363;28;20092;-66
2021/11/02 16:28:13;;;;;;;5.43;4.32;;;10.40;77.20;;;;;;5015815;28;20045;-65
2021/11/02 16:30:44;;;;;;;12.27;7.57;;;10.40;77.30;;;;;;5011278;28;20048;-66
2021/11/02 16:33:11;;;;;;;9.15;2.60;;;10.30;77.50;;;;;;5012883;28;20520;-66
2021/11/02 16:35:46;;;;;;;12.85;2.55;;;10.30;77.60;;;;;;5015468;28;20092;-66
2021/11/02 16:38:27;;;;;;;6.93;4.20;;;10.30;77.80;;;;;;5017968;28;20041;-66
2021/11/02 16:40:55;;;;;;;6.78;3.40;;;10.30;78.00;;;;;;5015727;28;20033;-67
2021/11/02 16:43:35;;;;;;;15.18;7.70;;;10.20;78.00;;;;;;5016789;28;20057;-66
2021/11/02 16:46:06;;;;;;;45.45;27.13;;;10.20;78.00;;;;;;5017850;28;20685;-66
2021/11/02 16:48:35;;;;;;;61.63;41.63;;;10.20;78.10;;;;;;5016390;28;20068;-66
2021/11/02 16:51:01;;;;;;;25.67;11.73;;;10.20;78.20;;;;;;5018762;28;20061;-66
2021/11/02 16:53:28;;;;;;;15.70;7.28;;;10.10;78.20;;;;;;5017859;28;20091;-66
2021/11/02 16:55:54;;;;;;;7.28;3.03;;;10.10;78.40;;;;;;5018583;28;20462;-66
2021/11/02 16:58:20;;;;;;;13.00;8.05;;;10.10;78.60;;;;;;5019262;28;20435;-66
2021/11/02 17:00:47;;;;;;;18.75;12.85;;;10.00;78.60;;;;;;5017072;28;20533;-66
2021/11/02 17:03:15;;;;;;;20.42;8.68;;;10.00;78.70;;;;;;5018385;28;20045;-66
2021/11/02 17:05:41;;;;;;;1.92;1.70;;;10.00;78.80;;;;;;5013458;28;20033;-66
2021/11/02 17:08:09;;;;;;;1.20;1.10;;;10.00;78.90;;;;;;5014529;28;20117;-66
2021/11/02 17:10:40;;;;;;;1.25;0.88;;;10.00;79.10;;;;;;5010952;28;20026;-66
2021/11/02 17:13:25;;;;;;;1.45;0.80;;;9.90;79.00;;;;;;5029779;28;20030;-66
2021/11/02 17:16:03;;;;;;;2.30;2.10;;;9.90;79.00;;;;;;5014403;28;20098;-66
2021/11/02 17:18:53;;;;;;;1.85;1.75;;;9.90;78.90;;;;;;5014956;28;20041;-67
2021/11/02 17:21:21;;;;;;;6.43;4.88;;;9.90;79.10;;;;;;5009780;28;20037;-66
2021/11/02 17:23:47;;;;;;;2.10;1.90;;;9.80;78.90;;;;;;4993428;28;21042;-66
2021/11/02 17:26:15;;;;;;;1.10;0.90;;;9.80;78.90;;;;;;4995213;28;20050;-66
2021/11/02 17:28:45;;;;;;;1.30;0.88;;;9.80;79.00;;;;;;4996486;28;20092;-66
2021/11/02 17:31:11;;;;;;;2.25;1.40;;;9.70;79.00;;;;;;4997453;28;20030;-65
2021/11/02 17:33:37;;;;;;;13.63;9.25;;;9.70;79.10;;;;;;4993985;28;20035;-66
2021/11/02 17:36:06;;;;;;;13.45;8.55;;;9.60;79.10;;;;;;4988274;28;20055;-66
2021/11/02 17:38:34;;;;;;;10.48;8.45;;;9.60;79.10;;;;;;4992299;28;20046;-67
2021/11/02 17:41:04;;;;;;;2.67;2.47;;;9.60;79.10;;;;;;4987991;28;20030;-66
2021/11/02 17:43:31;;;;;;;2.75;1.65;;;9.60;79.30;;;;;;4989925;28;20452;-65
2021/11/02 17:45:57;;;;;;;2.05;1.50;;;9.50;79.20;;;;;;4996951;28;20038;-66
2021/11/02 17:48:25;;;;;;;1.92;1.35;;;9.50;79.30;;;;;;4991692;28;20055;-66
2021/11/02 17:50:50;;;;;;;2.70;2.08;;;9.50;79.40;;;;;;4997407;28;20039;-65
2021/11/02 17:53:17;;;;;;;2.40;1.60;;;9.50;79.40;;;;;;4996752;28;20037;-66
2021/11/02 17:55:44;;;;;;;1.40;1.30;;;9.40;79.40;;;;;;4994305;28;20023;-66
2021/11/02 17:58:10;;;;;;;1.15;1.02;;;9.40;79.40;;;;;;4996896;28;20034;-66
2021/11/02 18:00:37;;;;;;;1.40;1.30;;;9.40;79.40;;;;;;4995457;28;20540;-66
2021/11/02 18:03:04;;;;;;;1.40;1.30;;;9.40;79.40;;;;;;4992799;28;20441;-66
2021/11/02 18:05:31;;;;;;;2.15;1.90;;;9.40;79.40;;;;;;4989329;28;20036;-65
2021/11/02 18:08:01;;;;;;;2.83;1.50;;;9.40;79.40;;;;;;4992962;28;20064;-66